BFIBOEING FLD/KING COUNTY INTL
METARs for airports near BFI, sorted by distance:
N 0 nm 21' KBFI 172253Z 18008KT 10SM CLR 28/16 A2997
SE 4 nm 32' KRNT 172253Z 20007KT 10SM CLR 28/16 A2997
S 4 nm 432' KSEA 172253Z 22008KT 10SM FEW050 SCT150 BKN200 26/14 A3000
W 18 nm 444' KPWT 172256Z
SW 19 nm 294' KTIW 172253Z 30006KT 10SM CLR 27/16 A2999
N 22 nm 606' KPAE 172253Z 25008KT 10SM CLR 29/14 A2999
S 24 nm 322' KTCM 172255Z 32007KT 10SM FEW170 28/15 A2999
S 25 nm 537' KPLU 172255Z 00000KT 9SM CLR 28/15 A3000
S 29 nm 301' KGRF 172255Z 27009KT 10SM CLR 28/15 A2997
N 38 nm 141' KAWO 172303Z 26007KT 10SM FEW002 27/15 A2997
SW 38 nm 272' KSHN 172253Z 25012KT 10SM CLR 25/15 A2998
SW 41 nm 207' KOLM 172254Z 21007KT 170V250 10SM CLR 28/16 A2999
N 51 nm 47' KNUW 172253Z 22006KT 10SM FEW040 SCT110 BKN160 BKN250 18/14 A2998
N 56 nm 145' KBVS 172255Z 00000G10KT 6SM HZ CLR 25/17 A2995
NW 57 nm 13' KNOW 172255Z 29017KT 10SM CLR 19/14 A2997
SW 58 nm 177' KCLS 172255Z VRB04KT 10SM CLR 28/16 A3000
NW 59 nm 291' KCLM 172253Z 29009KT 10SM CLR 24/15 A2999
NW 66 nm 112' KFHR 172253Z 23006KT 10SM CLR 24/13 A2996
SW 74 nm 17' KHQM 172253Z 26011KT 10SM OVC015 17/14 A3007
N 74 nm 34' KORS 172255Z 17005KT 9SM CLR 24/16 A2993
N 76 nm 171' KBLI 172253Z 21006KT 10SM CLR 25/16 A2993
E 78 nm 1763' KELN 172253Z 24015G23KT 10SM CLR 34/06 A2998
NW 80 nm 64' CYYJ 172200Z 10007KT 30SM BKN190 BKN230 23/15 A2994
E 85 nm 1248' KEAT 172255Z 14003KT 10SM CLR 34/09 A2990
S 88 nm 20' KKLS 172256Z 28006KT 10SM CLR 27/16 A3001
SE 92 nm 1098' KYKM 172253Z 29019G27KT 10SM CLR 32/11 A2994
W 94 nm 194' KUIL 172253Z 19008KT 150V220 10SM OVC006 17/14 A3005
TAFs for airports near BFI, sorted by distance:
N 0 nm 21' KBFI KBFI 171740Z 1718/1818 25005KT P6SM BKN150
  FM180300 20006KT P6SM SKC
  FM180900 28006KT P6SM OVC012
  FM181700 20005KT P6SM SCT015
S 4 nm 432' KSEA KSEA 171740Z 1718/1824 21006KT P6SM BKN150
  FM172000 25006KT P6SM FEW050 SCT150
  FM180300 21006KT P6SM SKC
  FM180900 21006KT P6SM OVC008
  FM181700 21006KT P6SM OVC012
  FM181900 24006KT P6SM FEW250
W 18 nm 444' KPWT TAF KPWT 171740Z 1718/1818 19006KT P6SM BKN150
  FM180300 19006KT P6SM SKC
  FM180800 19006KT P6SM OVC006
  FM181200 21009KT P6SM OVC003
  AMD NOT SKED
N 22 nm 606' KPAE KPAE 171740Z 1718/1818 19006KT P6SM BKN150
  FM172000 31006KT P6SM FEW050 SCT150
  FM180600 19006KT P6SM SKC
  FM181000 19006KT P6SM OVC006
  FM181700 21006KT P6SM SCT010
S 24 nm 322' KTCM TAF TAF KTCM 172100Z 1721/1903 25012KT 9999 FEW150 SCT210 QNH2999INS
  BECMG 1806/1807 22006KT 9999 SCT020 BKN040 QNH3006INS
  BECMG 1809/1810 25005KT 9999 SCT015 BKN025 QNH3007INS
  BECMG 1816/1817 24009KT 9999 SKC QNH3005INS TX29/1723Z TN13/1813Z
S 29 nm 301' KGRF TAF KGRF 172100Z 1721/1903 24009KT 9999 SCT160 SCT220 QNH2997INS
  BECMG 1804/1805 24008KT 9999 FEW021 QNH3004INS
  BECMG 1808/1809 24005KT 9999 SKC QNH3005INS
  BECMG 1820/1821 24010KT 9999 SKC QNH3003INS TX28/1800Z TN13/1813Z
SW 41 nm 207' KOLM KOLM 171740Z 1718/1818 24006KT P6SM SCT150
  FM172000 27008KT P6SM SCT150
  FM180900 21006KT P6SM OVC012
  FM181700 22005KT P6SM SCT015
N 51 nm 47' KNUW TAF KNUW 1723/1823 24009KT 9999 VCSH FEW040 SCT110 BKN160 BKN250 QNH2994INS
  FM180900 22007KT 6000 BR VCFG SCT004 BKN008 OVC015 QNH2999INS
  TEMPO 1810/1816 VRB04KT 0800 FG VV003
  FM181600 VRB06KT 9999 FEW005 BKN015 BKN250 QNH3008INS
  FM181900 26008KT 9999 FEW015 SCT250 QNH3006INS TX18/1723Z TN12/1813Z FS30046
NW 59 nm 291' KCLM KCLM 171740Z 1718/1818 30006KT P6SM BKN150
  FM180200 29012KT P6SM SCT150
  FM181000 29008KT P6SM OVC008
  FM181600 32005KT P6SM BKN015
SW 74 nm 17' KHQM TAF KHQM 171740Z 1718/1818 21008KT P6SM OVC006
  FM171900 24012KT P6SM OVC012
  FM180200 24008KT P6SM OVC008
  FM180900 21006KT P6SM OVC004
N 76 nm 171' KBLI KBLI 171740Z 1718/1818 VRB03KT P6SM BKN150
  FM172000 21006KT P6SM SCT150
  FM181100 21006KT P6SM OVC012
E 85 nm 1248' KEAT KEAT 171739Z 1718/1818 VRB04KT P6SM SKC
  FM172000 12006KT P6SM SCT120 BKN200
  FM180300 29010KT P6SM SCT120 BKN200
  FM181200 30008KT P6SM BKN250
SE 92 nm 1098' KYKM KYKM 171720Z 1718/1818 VRB05KT P6SM VCSH BKN150 OVC250
  FM172000 VRB05KT P6SM VCTS FEW100CB SCT150
  TEMPO 1722/1801 VRB10G20KT -TSRA FEW050CB
  FM180200 31008KT P6SM FEW250

Shortcut to this page: http://wxbay.com.

Data may contain errors.